createdAt,value
2018-05-02T00:00:19.204Z,4.90
2018-05-02T00:02:45.452Z,4.60
2018-05-02T00:05:12.368Z,4.77
2018-05-02T00:07:38.611Z,4.10
2018-05-02T00:10:05.500Z,4.93
2018-05-02T00:12:31.728Z,4.77
2018-05-02T00:14:57.954Z,4.15
2018-05-02T00:17:24.249Z,4.57
2018-05-02T00:19:50.456Z,4.40
2018-05-02T00:22:16.737Z,4.87
2018-05-02T00:24:42.971Z,4.77
2018-05-02T00:27:09.216Z,4.40
2018-05-02T00:29:35.388Z,4.40
2018-05-02T00:32:02.419Z,4.90
2018-05-02T00:34:28.609Z,4.72
2018-05-02T00:36:55.033Z,4.57
2018-05-02T00:39:21.222Z,4.90
2018-05-02T00:41:48.159Z,4.97
2018-05-02T00:44:15.184Z,5.80
2018-05-02T00:46:41.351Z,7.25
2018-05-02T00:49:15.644Z,5.25
2018-05-02T00:51:42.871Z,5.97
2018-05-02T00:54:09.108Z,6.50
2018-05-02T00:56:36.776Z,5.37
2018-05-02T00:59:03.025Z,5.68
2018-05-02T01:01:29.988Z,6.18
2018-05-02T01:03:56.160Z,7.30
2018-05-02T01:06:22.364Z,5.70
2018-05-02T01:08:48.608Z,5.60
2018-05-02T01:11:14.863Z,5.53
2018-05-02T01:13:41.126Z,8.98
2018-05-02T01:16:07.377Z,8.38
2018-05-02T01:18:33.575Z,21.00
2018-05-02T01:21:00.528Z,8.02
2018-05-02T01:23:26.804Z,6.62
2018-05-02T01:25:53.072Z,6.57
2018-05-02T01:28:20.125Z,9.02
2018-05-02T01:30:47.057Z,6.15
2018-05-02T01:33:13.978Z,6.10
2018-05-02T01:35:40.256Z,6.05
2018-05-02T01:38:06.408Z,7.00
2018-05-02T01:40:32.629Z,5.70
2018-05-02T01:42:58.864Z,5.25
2018-05-02T01:45:25.135Z,5.33
2018-05-02T01:47:51.344Z,5.10
2018-05-02T01:50:17.581Z,5.18
2018-05-02T01:52:43.845Z,5.53
2018-05-02T01:55:10.854Z,5.30
2018-05-02T01:57:37.076Z,5.07
2018-05-02T02:00:04.320Z,7.00
2018-05-02T02:02:30.535Z,5.60
2018-05-02T02:04:56.784Z,5.12
2018-05-02T02:07:23.020Z,5.18
2018-05-02T02:09:49.284Z,5.95
2018-05-02T02:12:16.328Z,6.30
2018-05-02T02:14:43.329Z,6.15
2018-05-02T02:17:09.527Z,6.62
2018-05-02T02:19:35.791Z,6.95
2018-05-02T02:22:04.032Z,5.53
2018-05-02T02:24:30.236Z,6.43
2018-05-02T02:26:57.183Z,5.80
2018-05-02T02:29:24.128Z,6.15
2018-05-02T02:31:51.084Z,6.15
2018-05-02T02:34:17.339Z,6.20
2018-05-02T02:36:43.663Z,6.50
2018-05-02T02:39:14.942Z,5.45
2018-05-02T02:41:41.907Z,6.53
2018-05-02T02:44:08.179Z,5.97
2018-05-02T02:46:34.391Z,5.50
2018-05-02T02:49:00.656Z,5.85
2018-05-02T02:51:26.917Z,6.20
2018-05-02T02:53:53.107Z,6.50
2018-05-02T02:56:22.845Z,5.70
2018-05-02T02:58:49.120Z,5.62
2018-05-02T03:01:15.341Z,5.30
2018-05-02T03:03:42.239Z,5.80
2018-05-02T03:06:08.400Z,6.53
2018-05-02T03:08:35.293Z,5.65
2018-05-02T03:11:01.448Z,6.90
2018-05-02T03:13:27.648Z,6.28
2018-05-02T03:15:53.849Z,6.22
2018-05-02T03:18:19.996Z,6.70
2018-05-02T03:20:46.199Z,7.05
2018-05-02T03:23:12.331Z,6.32
2018-05-02T03:25:38.541Z,6.50
2018-05-02T03:28:04.688Z,6.45
2018-05-02T03:30:30.816Z,6.12
2018-05-02T03:32:57.704Z,6.70
2018-05-02T03:35:24.000Z,6.47
2018-05-02T03:37:50.248Z,6.10
2018-05-02T03:40:17.176Z,6.85
2018-05-02T03:42:43.330Z,6.75
2018-05-02T03:45:09.692Z,6.22
2018-05-02T03:47:35.911Z,7.03
2018-05-02T03:50:02.843Z,6.75
2018-05-02T03:52:29.015Z,6.25
2018-05-02T03:54:55.223Z,8.00
2018-05-02T03:57:22.119Z,7.62
2018-05-02T04:00:00.565Z,7.43
2018-05-02T04:02:39.212Z,7.60
2018-05-02T04:05:18.709Z,7.40
2018-05-02T04:07:44.952Z,6.93
2018-05-02T04:10:11.840Z,7.35
2018-05-02T04:12:38.058Z,7.30
2018-05-02T04:15:04.395Z,7.97
2018-05-02T04:17:30.622Z,8.18
2018-05-02T04:19:56.908Z,7.20
2018-05-02T04:22:24.179Z,7.85
2018-05-02T04:24:51.087Z,7.93
2018-05-02T04:27:17.331Z,7.85
2018-05-02T04:29:43.674Z,10.00
2018-05-02T04:32:10.691Z,9.27
2018-05-02T04:34:36.883Z,9.70
2018-05-02T04:37:03.168Z,9.60
2018-05-02T04:39:29.360Z,10.57
2018-05-02T04:41:55.524Z,10.70
2018-05-02T04:44:21.671Z,9.77
2018-05-02T04:46:49.645Z,10.15
2018-05-02T04:49:16.597Z,10.30
2018-05-02T04:51:42.827Z,10.03
2018-05-02T04:54:09.459Z,9.70
2018-05-02T04:56:36.904Z,10.87
2018-05-02T04:59:03.829Z,10.17
2018-05-02T05:01:30.099Z,9.93
2018-05-02T05:03:56.313Z,9.90
2018-05-02T05:06:23.268Z,9.47
2018-05-02T05:08:49.504Z,9.20
2018-05-02T05:11:15.829Z,10.97
2018-05-02T05:13:42.011Z,10.10
2018-05-02T05:16:08.172Z,10.43
2018-05-02T05:18:35.227Z,9.90
2018-05-02T05:21:02.300Z,9.93
2018-05-02T05:23:28.528Z,10.40
2018-05-02T05:25:54.719Z,8.70
2018-05-02T05:28:21.772Z,8.30
2018-05-02T05:30:47.924Z,8.70
2018-05-02T05:33:14.094Z,8.90
2018-05-02T05:35:40.322Z,8.07
2018-05-02T05:38:06.609Z,8.20
2018-05-02T05:40:32.872Z,7.80
2018-05-02T05:42:59.052Z,8.03
2018-05-02T05:45:25.375Z,7.60
2018-05-02T05:47:51.640Z,6.40
2018-05-02T05:50:17.885Z,7.10
2018-05-02T05:52:44.009Z,7.77
2018-05-02T05:55:10.160Z,7.23
2018-05-02T05:57:36.299Z,7.80
2018-05-02T06:00:03.196Z,8.03
2018-05-02T06:02:29.346Z,6.73
2018-05-02T06:04:55.487Z,7.07
2018-05-02T06:07:21.641Z,7.10
2018-05-02T06:09:47.796Z,7.80
2018-05-02T06:12:15.016Z,6.30
2018-05-02T06:14:41.164Z,7.30
2018-05-02T06:17:07.315Z,6.70
2018-05-02T06:19:34.308Z,6.80
2018-05-02T06:22:01.212Z,6.43
2018-05-02T06:24:27.408Z,6.23
2018-05-02T06:26:53.584Z,5.37
2018-05-02T06:29:19.836Z,5.80
2018-05-02T06:31:46.791Z,5.20
2018-05-02T06:34:12.876Z,5.63
2018-05-02T06:36:39.048Z,5.60
2018-05-02T06:39:05.229Z,5.23
2018-05-02T06:41:31.505Z,5.60
2018-05-02T06:43:57.690Z,4.90
2018-05-02T06:46:23.997Z,5.17
2018-05-02T06:48:50.159Z,4.70
2018-05-02T06:51:17.059Z,4.97
2018-05-02T06:53:43.217Z,4.97
2018-05-02T06:56:09.431Z,4.30
2018-05-02T06:58:35.603Z,4.37
2018-05-02T07:01:01.780Z,4.90
2018-05-02T07:03:27.932Z,4.40
2018-05-02T07:05:54.839Z,4.60
2018-05-02T07:08:20.996Z,5.10
2018-05-02T07:10:47.222Z,4.50
2018-05-02T07:13:13.371Z,5.10
2018-05-02T07:15:40.307Z,4.77
2018-05-02T07:18:07.208Z,4.87
2018-05-02T07:20:33.342Z,4.73
2018-05-02T07:22:59.561Z,5.90
2018-05-02T07:25:25.695Z,4.33
2018-05-02T07:27:51.835Z,5.13
2018-05-02T07:30:17.995Z,5.07
2018-05-02T07:32:45.070Z,5.50
2018-05-02T07:35:11.151Z,5.90
2018-05-02T07:37:37.341Z,5.33
2018-05-02T07:40:03.487Z,4.80
2018-05-02T07:42:29.667Z,5.70
2018-05-02T07:44:55.812Z,4.83
2018-05-02T07:47:23.029Z,5.13
2018-05-02T07:49:49.183Z,5.50
2018-05-02T07:52:15.332Z,4.50
2018-05-02T07:54:41.515Z,5.00
2018-05-02T07:57:07.680Z,5.10
2018-05-02T07:59:33.888Z,4.70
2018-05-02T08:02:00.047Z,5.10
2018-05-02T08:04:26.247Z,4.57
2018-05-02T08:06:52.393Z,4.47
2018-05-02T08:09:18.551Z,4.87
2018-05-02T08:11:44.699Z,4.93
2018-05-02T08:14:11.593Z,4.90
2018-05-02T08:16:37.744Z,4.80
2018-05-02T08:19:03.901Z,4.90
2018-05-02T08:21:30.103Z,5.13
2018-05-02T08:23:56.269Z,4.93
2018-05-02T08:26:22.406Z,4.70
2018-05-02T08:28:48.574Z,5.40
2018-05-02T08:31:14.737Z,5.20
2018-05-02T08:33:40.876Z,5.03
2018-05-02T08:36:07.091Z,5.30
2018-05-02T08:38:33.242Z,5.03
2018-05-02T08:40:59.383Z,5.33
2018-05-02T08:43:26.262Z,5.67
2018-05-02T08:45:52.433Z,5.73
2018-05-02T08:48:18.579Z,5.30
2018-05-02T08:50:44.825Z,5.90
2018-05-02T08:53:10.975Z,5.77
2018-05-02T08:55:37.983Z,6.40
2018-05-02T08:58:04.119Z,6.00
2018-05-02T09:00:30.270Z,6.40
2018-05-02T09:02:57.153Z,6.53
2018-05-02T09:05:23.375Z,6.13
2018-05-02T09:07:49.507Z,6.60
2018-05-02T09:10:15.656Z,7.40
2018-05-02T09:12:41.815Z,6.00
2018-05-02T09:15:08.002Z,6.47
2018-05-02T09:17:34.153Z,6.40
2018-05-02T09:20:00.298Z,6.30
2018-05-02T09:22:26.440Z,6.93
2018-05-02T09:24:53.376Z,6.23
2018-05-02T09:27:20.320Z,6.40
2018-05-02T09:29:47.204Z,5.70
2018-05-02T09:32:13.385Z,6.10
2018-05-02T09:34:40.289Z,6.20
2018-05-02T09:37:06.414Z,5.90
2018-05-02T09:39:32.567Z,5.80
2018-05-02T09:41:58.728Z,5.30
2018-05-02T09:44:25.673Z,4.80
2018-05-02T09:46:51.860Z,5.33
2018-05-02T09:49:17.996Z,4.47
2018-05-02T09:51:44.150Z,5.10
2018-05-02T09:54:11.080Z,4.77
2018-05-02T09:56:37.992Z,4.40
2018-05-02T09:59:04.151Z,4.50
2018-05-02T10:01:31.061Z,4.80
2018-05-02T10:03:57.223Z,4.27
2018-05-02T10:06:24.216Z,4.93
2018-05-02T10:08:50.452Z,4.63
2018-05-02T10:11:16.646Z,4.10
2018-05-02T10:13:42.804Z,4.80
2018-05-02T10:16:08.952Z,5.23
2018-05-02T10:18:35.180Z,4.50
2018-05-02T10:21:01.349Z,3.83
2018-05-02T10:23:28.244Z,4.93
2018-05-02T10:25:54.532Z,5.23
2018-05-02T10:28:20.820Z,5.33
2018-05-02T10:30:47.023Z,4.40
2018-05-02T10:33:13.289Z,4.83
2018-05-02T10:35:39.419Z,5.20
2018-05-02T10:38:06.413Z,4.47
2018-05-02T10:40:32.547Z,5.03
2018-05-02T10:42:58.748Z,5.17
2018-05-02T10:45:24.903Z,4.60
2018-05-02T10:47:51.101Z,4.60
2018-05-02T10:52:49.264Z,5.10
2018-05-02T10:55:15.396Z,5.30
2018-05-02T10:57:42.309Z,5.13
2018-05-02T11:00:08.468Z,5.03
2018-05-02T11:02:35.452Z,5.50
2018-05-02T11:05:01.609Z,4.43
2018-05-02T11:07:27.788Z,4.80
2018-05-02T11:09:53.944Z,5.33
2018-05-02T11:12:20.100Z,5.10
2018-05-02T11:14:46.271Z,4.80
2018-05-02T11:17:12.488Z,5.20
2018-05-02T11:19:38.696Z,6.23
2018-05-02T11:22:05.635Z,5.03
2018-05-02T11:24:31.814Z,5.03
2018-05-02T11:26:57.975Z,4.87
2018-05-02T11:29:25.159Z,4.80
2018-05-02T11:31:51.420Z,4.90
2018-05-02T11:34:17.572Z,5.50
2018-05-02T11:36:43.796Z,5.03
2018-05-02T11:39:10.010Z,4.60
2018-05-02T11:41:36.184Z,4.93
2018-05-02T11:44:03.095Z,4.97
2018-05-02T11:46:29.263Z,5.30
2018-05-02T11:48:56.179Z,6.00
2018-05-02T11:51:22.352Z,5.43
2018-05-02T11:53:48.607Z,5.10
2018-05-02T11:56:14.776Z,5.20
2018-05-02T11:58:41.747Z,5.50
2018-05-02T12:01:07.904Z,4.97
2018-05-02T12:03:34.208Z,4.87
2018-05-02T12:06:00.331Z,5.20
2018-05-02T12:08:26.483Z,5.33
2018-05-02T12:10:52.626Z,5.27
2018-05-02T12:13:18.840Z,5.40
2018-05-02T12:15:45.005Z,5.20
2018-05-02T12:18:11.327Z,5.00
2018-05-02T12:20:37.499Z,5.30
2018-05-02T12:23:03.689Z,4.63
2018-05-02T12:25:29.943Z,5.27
2018-05-02T12:27:56.844Z,6.00
2018-05-02T12:30:23.055Z,5.67
2018-05-02T12:32:49.215Z,5.20
2018-05-02T12:35:15.406Z,5.57
2018-05-02T12:37:41.555Z,6.00
2018-05-02T12:40:07.803Z,5.30
2018-05-02T12:42:33.959Z,4.77
2018-05-02T12:45:00.140Z,5.37
2018-05-02T12:47:26.317Z,5.20
2018-05-02T12:49:52.476Z,5.80
2018-05-02T12:52:18.627Z,5.17
2018-05-02T12:54:44.788Z,5.17
2018-05-02T12:57:11.059Z,4.83
2018-05-02T12:59:37.331Z,4.47
2018-05-02T13:02:03.495Z,5.37
2018-05-02T13:04:29.654Z,4.50
2018-05-02T13:06:55.807Z,4.67
2018-05-02T13:09:22.732Z,5.73
2018-05-02T13:11:49.125Z,5.63
2018-05-02T13:14:15.288Z,4.97
2018-05-02T13:16:41.479Z,5.27
2018-05-02T13:19:07.627Z,4.83
2018-05-02T13:21:34.849Z,4.13
2018-05-02T13:24:01.025Z,4.80
2018-05-02T13:26:27.222Z,4.60
2018-05-02T13:28:53.427Z,4.10
2018-05-02T13:31:19.599Z,5.50
2018-05-02T13:33:45.967Z,4.47
2018-05-02T13:36:12.867Z,4.07
2018-05-02T13:38:39.164Z,4.53
2018-05-02T13:41:05.412Z,5.00
2018-05-02T13:43:31.816Z,4.50
2018-05-02T13:45:58.103Z,4.53
2018-05-02T13:48:25.147Z,5.03
2018-05-02T13:50:51.455Z,4.20
2018-05-02T13:53:17.671Z,4.57
2018-05-02T13:55:44.617Z,4.70
2018-05-02T13:58:11.559Z,4.53
2018-05-02T14:00:37.820Z,4.80
2018-05-02T14:03:04.171Z,4.30
2018-05-02T14:05:31.150Z,4.70
2018-05-02T14:07:57.383Z,4.50
2018-05-02T14:10:23.601Z,3.90
2018-05-02T14:12:49.807Z,4.40
2018-05-02T14:15:16.092Z,5.13
2018-05-02T14:17:42.320Z,4.60
2018-05-02T14:20:08.569Z,4.10
2018-05-02T14:22:35.696Z,3.60
2018-05-02T14:25:02.155Z,4.33
2018-05-02T14:27:28.341Z,4.03
2018-05-02T14:29:54.547Z,4.37
2018-05-02T14:32:20.739Z,4.23
2018-05-02T14:34:47.905Z,5.03
2018-05-02T14:37:14.047Z,4.00
2018-05-02T14:39:40.931Z,3.90
2018-05-02T14:42:07.140Z,3.60
2018-05-02T14:44:33.292Z,3.90
2018-05-02T14:46:59.436Z,4.00
2018-05-02T14:52:18.100Z,3.80
2018-05-02T14:54:45.320Z,4.00
2018-05-02T14:57:11.512Z,3.83
2018-05-02T14:59:38.469Z,4.60
2018-05-02T15:02:04.735Z,4.70
2018-05-02T15:04:30.916Z,4.50
2018-05-02T15:06:57.810Z,4.30
2018-05-02T15:09:23.957Z,4.10
2018-05-02T15:11:51.132Z,4.40
2018-05-02T15:14:18.040Z,3.83
2018-05-02T15:16:44.240Z,3.97
2018-05-02T15:19:10.380Z,3.63
2018-05-02T15:21:36.573Z,4.10
2018-05-02T15:24:02.742Z,3.57
2018-05-02T15:26:28.895Z,3.90
2018-05-02T15:28:55.208Z,3.27
2018-05-02T15:31:21.354Z,3.27
2018-05-02T15:33:47.496Z,3.20
2018-05-02T15:36:14.457Z,3.73
2018-05-02T15:38:41.352Z,4.07
2018-05-02T15:41:07.671Z,3.70
2018-05-02T15:43:33.835Z,3.70
2018-05-02T15:46:00.008Z,3.77
2018-05-02T15:48:26.148Z,3.90
2018-05-02T15:50:52.298Z,4.10
2018-05-02T15:53:18.456Z,3.70
2018-05-02T15:55:45.327Z,4.10
2018-05-02T15:58:11.561Z,5.00
2018-05-02T16:00:37.671Z,4.20
2018-05-02T16:03:03.864Z,4.07
2018-05-02T16:05:30.017Z,4.20
2018-05-02T16:07:56.218Z,4.10
2018-05-02T16:10:22.457Z,4.60
2018-05-02T16:12:49.407Z,4.47
2018-05-02T16:15:16.287Z,4.03
2018-05-02T16:17:42.444Z,4.30
2018-05-02T16:20:08.709Z,4.47
2018-05-02T16:22:35.608Z,4.17
2018-05-02T16:25:02.556Z,4.17
2018-05-02T16:27:29.704Z,5.00
2018-05-02T16:29:55.990Z,4.03
2018-05-02T16:32:22.104Z,4.27
2018-05-02T16:34:48.364Z,3.77
2018-05-02T16:37:14.575Z,3.87
2018-05-02T16:39:40.828Z,4.13
2018-05-02T16:42:07.153Z,4.20
2018-05-02T16:44:33.488Z,3.87
2018-05-02T16:46:59.688Z,4.07
2018-05-02T16:49:25.866Z,3.60
2018-05-02T16:51:52.302Z,4.17
2018-05-02T16:54:18.472Z,4.50
2018-05-02T16:56:44.705Z,4.10
2018-05-02T16:59:10.884Z,3.63
2018-05-02T17:01:37.125Z,3.97
2018-05-02T17:04:04.031Z,3.57
2018-05-02T17:06:30.315Z,3.83
2018-05-02T17:08:57.244Z,3.63
2018-05-02T17:11:23.545Z,3.77
2018-05-02T17:13:49.660Z,3.07
2018-05-02T17:16:15.883Z,3.50
2018-05-02T17:18:42.147Z,3.60
2018-05-02T17:21:08.403Z,3.80
2018-05-02T17:23:35.392Z,4.20
2018-05-02T17:26:01.564Z,3.83
2018-05-02T17:28:27.958Z,4.23
2018-05-02T17:30:54.954Z,3.87
2018-05-02T17:33:21.268Z,4.07
2018-05-02T17:35:47.938Z,4.23
2018-05-02T17:38:15.062Z,3.60
2018-05-02T17:40:43.541Z,3.73
2018-05-02T17:43:10.207Z,3.57
2018-05-02T17:45:36.906Z,3.70
2018-05-02T17:48:06.295Z,4.30
2018-05-02T17:50:32.782Z,3.90
2018-05-02T17:52:59.853Z,3.80
2018-05-02T17:55:27.208Z,3.73
2018-05-02T17:57:55.170Z,3.70
2018-05-02T18:00:23.562Z,3.90
2018-05-02T18:02:49.988Z,3.87
2018-05-02T18:05:17.700Z,3.77
2018-05-02T18:07:48.280Z,3.57
2018-05-02T18:10:19.282Z,3.87
2018-05-02T18:12:49.015Z,3.70
2018-05-02T18:15:15.459Z,3.67
2018-05-02T18:17:41.655Z,3.23
2018-05-02T18:20:08.596Z,3.67
2018-05-02T18:22:35.525Z,3.60
2018-05-02T18:25:01.905Z,4.00
2018-05-02T18:27:28.095Z,3.80
2018-05-02T18:29:54.316Z,3.83
2018-05-02T18:32:20.552Z,3.43
2018-05-02T18:34:47.447Z,3.70
2018-05-02T18:37:13.704Z,3.33
2018-05-02T18:39:40.668Z,3.73
2018-05-02T18:42:06.810Z,3.83
2018-05-02T18:44:33.792Z,3.90
2018-05-02T18:46:59.937Z,3.83
2018-05-02T18:49:26.177Z,4.40
2018-05-02T18:51:52.336Z,3.53
2018-05-02T18:54:19.248Z,3.40
2018-05-02T18:56:45.433Z,3.43
2018-05-02T18:59:11.652Z,3.50
2018-05-02T19:01:37.819Z,3.90
2018-05-02T19:04:03.956Z,4.00
2018-05-02T19:06:30.141Z,3.70
2018-05-02T19:08:56.276Z,3.57
2018-05-02T19:11:22.541Z,3.43
2018-05-02T19:13:54.780Z,4.17
2018-05-02T19:16:21.052Z,3.67
2018-05-02T19:18:53.312Z,3.60
2018-05-02T19:21:19.507Z,4.37
2018-05-02T19:23:45.744Z,3.80
2018-05-02T19:26:18.264Z,3.97
2018-05-02T19:28:45.448Z,3.83
2018-05-02T19:31:18.560Z,4.70
2018-05-02T19:33:51.008Z,4.17
2018-05-02T19:36:17.160Z,4.23
2018-05-02T19:38:43.403Z,4.20
2018-05-02T19:41:15.655Z,4.40
2018-05-02T19:43:47.848Z,4.40
2018-05-02T19:46:14.025Z,3.80
2018-05-02T19:48:40.167Z,4.07
2018-05-02T19:51:12.445Z,4.70
2018-05-02T19:53:38.592Z,4.00
2018-05-02T19:56:04.915Z,4.07
2018-05-02T19:58:31.182Z,3.80
2018-05-02T20:01:04.273Z,4.20
2018-05-02T20:03:31.232Z,3.87
2018-05-02T20:05:57.459Z,3.47
2018-05-02T20:08:30.108Z,3.90
2018-05-02T20:11:03.261Z,3.87
2018-05-02T20:13:35.526Z,4.00
2018-05-02T20:16:02.437Z,3.90
2018-05-02T20:18:29.381Z,4.27
2018-05-02T20:20:55.526Z,3.73
2018-05-02T20:23:21.738Z,4.23
2018-05-02T20:25:48.671Z,5.40
2018-05-02T20:28:15.612Z,6.17
2018-05-02T20:30:42.564Z,5.57
2018-05-02T20:33:09.526Z,6.50
2018-05-02T20:35:35.733Z,6.17
2018-05-02T20:38:01.963Z,5.50
2018-05-02T20:40:28.979Z,5.80
2018-05-02T20:42:55.967Z,4.50
2018-05-02T20:45:22.943Z,4.53
2018-05-02T20:47:49.219Z,5.10
2018-05-02T20:50:16.067Z,5.30
2018-05-02T20:52:43.091Z,5.30
2018-05-02T20:55:09.756Z,5.70
2018-05-02T20:57:36.716Z,5.17
2018-05-02T21:00:03.656Z,5.27
2018-05-02T21:02:29.800Z,5.23
2018-05-02T21:04:56.042Z,5.30
2018-05-02T21:07:22.250Z,4.80
2018-05-02T21:09:48.592Z,5.50
2018-05-02T21:12:14.748Z,5.10
2018-05-02T21:14:40.948Z,5.07
2018-05-02T21:17:07.697Z,4.90
2018-05-02T21:19:33.891Z,4.90
2018-05-02T21:22:00.862Z,5.53
2018-05-02T21:24:27.820Z,5.57
2018-05-02T21:26:54.279Z,5.77
2018-05-02T21:29:20.826Z,5.43
2018-05-02T21:31:47.047Z,6.10
2018-05-02T21:34:13.198Z,5.70
2018-05-02T21:36:40.160Z,5.90
2018-05-02T21:39:07.164Z,5.13
2018-05-02T21:41:33.371Z,5.10
2018-05-02T21:43:59.614Z,5.10
2018-05-02T21:46:25.860Z,6.30
2018-05-02T21:48:52.123Z,5.40
2018-05-02T21:51:18.343Z,6.90
2018-05-02T21:53:45.336Z,5.60
2018-05-02T21:56:11.592Z,5.60
2018-05-02T21:58:37.784Z,5.67
2018-05-02T22:01:04.112Z,6.03
2018-05-02T22:03:30.367Z,6.03
2018-05-02T22:05:56.616Z,6.27
2018-05-02T22:08:22.848Z,6.17
2018-05-02T22:10:49.880Z,6.30
2018-05-02T22:13:16.064Z,5.37
2018-05-02T22:15:42.335Z,4.90
2018-05-02T22:18:08.614Z,5.47
2018-05-02T22:20:34.829Z,6.20
2018-05-02T22:23:01.039Z,6.23
2018-05-02T22:25:27.984Z,6.43
2018-05-02T22:27:54.971Z,5.93
2018-05-02T22:30:21.184Z,6.33
2018-05-02T22:32:47.529Z,6.93
2018-05-02T22:35:13.846Z,6.63
2018-05-02T22:37:40.720Z,6.23
2018-05-02T22:40:06.867Z,5.77
2018-05-02T22:42:33.119Z,6.10
2018-05-02T22:45:00.121Z,6.40
2018-05-02T22:47:26.319Z,7.03
2018-05-02T22:49:52.588Z,6.20
2018-05-02T22:52:18.810Z,6.60
2018-05-02T22:54:45.159Z,6.20
2018-05-02T22:57:11.417Z,6.00
2018-05-02T22:59:38.340Z,6.63
2018-05-02T23:02:04.496Z,6.27
2018-05-02T23:04:30.753Z,6.07
2018-05-02T23:06:57.040Z,6.00
2018-05-02T23:09:23.943Z,6.03
2018-05-02T23:11:50.163Z,6.13
2018-05-02T23:14:16.363Z,7.13
2018-05-02T23:16:42.551Z,5.80
2018-05-02T23:19:08.707Z,6.30
2018-05-02T23:21:35.684Z,5.93
2018-05-02T23:24:01.911Z,5.83
2018-05-02T23:26:28.152Z,6.37
2018-05-02T23:28:54.457Z,6.40
2018-05-02T23:31:20.703Z,5.60
2018-05-02T23:33:46.885Z,6.13
2018-05-02T23:36:13.913Z,6.93
2018-05-02T23:38:40.073Z,6.17
2018-05-02T23:41:06.325Z,6.63
2018-05-02T23:43:32.567Z,6.30
2018-05-02T23:45:58.863Z,5.90
2018-05-02T23:48:25.048Z,7.63
2018-05-02T23:50:51.298Z,6.33
2018-05-02T23:53:18.268Z,6.10
2018-05-02T23:55:44.515Z,6.50
2018-05-02T23:58:10.783Z,6.50
